Yutaka Maru No.2 — JD4265 — position and weather

sailwx.info

Track history (hours):
 
Tides and Currents Weather Stations Pressure Air Temp Water Temp Dewpoint Dewpoint Depression Visibility Wind Speed Wind Dir Waves Ship Positions

Yutaka Maru No.2

Last reported at 2017-Sep-22 02:00 UTC. Time now 2017-Sep-24 03:24 UTC.
Position N 34°37' E 134°55'.

Length 76 m; draft 4.2 m.

Type: Cargo ship. MMSI: 431010033.

Date/timePositionNaut miles runAvg speedWind from/ knotsBaromVisibWave heightAir tempDewpointWater temp
2017-Sep-22 02:00N 34°37' E 134°55'713.9
2017-Sep-22 01:30N 34°36' E 135°03'713.3
2017-Sep-22 01:00N 34°37' E 135°12'713.3
2017-Sep-22 00:30N 34°38' E 135°19'612.3
2017-Sep-22 00:01N 34°40' E 135°27'0 0.9
2017-Sep-21 23:31N 34°40' E 135°27'0 0.0
2017-Sep-21 23:00N 34°40' E 135°27'0 0.0
2017-Sep-21 22:30N 34°40' E 135°27'0 0.0
2017-Sep-21 22:01N 34°40' E 135°27'0 0.0
2017-Sep-21 21:30N 34°40' E 135°27'0 0.0
2017-Sep-20 04:22N 34°40' E 135°27'1 1.5
2017-Sep-20 03:59N 34°40' E 135°26'510.2
2017-Sep-20 03:30N 34°37' E 135°21'611.5
2017-Sep-20 03:00N 34°32' E 135°18'611.7
2017-Sep-20 02:29N 34°28' E 135°12'611.5
2017-Sep-20 02:00N 34°23' E 135°08'611.8
2017-Sep-20 01:30N 34°19' E 135°04'611.1
2017-Sep-20 01:00N 34°13' E 135°03'612.3
2017-Sep-20 00:30N 34°07' E 135°03'222 9.0
2017-Sep-18 23:49N 34°60' E 139°25'410.4
2017-Sep-18 23:28N 35°02' E 139°29'510.1
2017-Sep-18 23:00N 35°04' E 139°34'611.1
2017-Sep-18 22:30N 35°07' E 139°40'611.3
2017-Sep-18 22:00N 35°11' E 139°44'611.7
2017-Sep-18 21:30N 35°16' E 139°45'612.5
2017-Sep-18 21:00N 35°22' E 139°41'3 5.2
2017-Sep-18 20:30N 35°24' E 139°39'  
2017-Sep-16 15:45N 35°24' E 139°39'0 2.1
2017-Sep-16 15:30N 35°24' E 139°40'611.3
2017-Sep-16 15:00N 35°26' E 139°46'5 0.1
2017-Sep-14 13:57N 35°22' E 139°49'2 4.9
2017-Sep-14 13:30N 35°24' E 139°50'612.3
2017-Sep-14 13:00N 35°30' E 139°51'1112.5
2017-Sep-14 12:08N 35°39' E 139°59'2 0.1
2017-Sep-13 15:41N 35°37' E 139°58'7 9.8
2017-Sep-13 15:00N 35°32' E 139°54'611.6
2017-Sep-13 14:30N 35°27' E 139°50'611.4
2017-Sep-13 14:00N 35°23' E 139°46'510.8
2017-Sep-13 13:30N 35°17' E 139°45'611.1
2017-Sep-13 13:00N 35°12' E 139°47'612.1
2017-Sep-13 12:30N 35°07' E 139°43'612.2
2017-Sep-13 12:00N 35°02' E 139°38'613.0
2017-Sep-13 11:31N 34°58' E 139°31'  
Track history (hours):
 
Tides and Currents Weather Stations Pressure Air Temp Water Temp Dewpoint Dewpoint Depression Visibility Wind Speed Wind Dir Waves Ship Positions

Yutaka Maru No.2

Last reported at 2017-Sep-22 02:00 UTC. Time now 2017-Sep-24 03:24 UTC.
Position N 34°37' E 134°55'.

Length 76 m; draft 4.2 m.

Type: Cargo ship. MMSI: 431010033.

Date/timePositionNaut miles runAvg speedWind from/ knotsBaromVisibWave heightAir tempDewpointWater temp
2017-Sep-22 02:00N 34°37' E 134°55'713.9
2017-Sep-22 01:30N 34°36' E 135°03'713.3
2017-Sep-22 01:00N 34°37' E 135°12'713.3
2017-Sep-22 00:30N 34°38' E 135°19'612.3
2017-Sep-22 00:01N 34°40' E 135°27'0 0.9
2017-Sep-21 23:31N 34°40' E 135°27'0 0.0
2017-Sep-21 23:00N 34°40' E 135°27'0 0.0
2017-Sep-21 22:30N 34°40' E 135°27'0 0.0
2017-Sep-21 22:01N 34°40' E 135°27'0 0.0
2017-Sep-21 21:30N 34°40' E 135°27'0 0.0
2017-Sep-20 04:22N 34°40' E 135°27'1 1.5
2017-Sep-20 03:59N 34°40' E 135°26'510.2
2017-Sep-20 03:30N 34°37' E 135°21'611.5
2017-Sep-20 03:00N 34°32' E 135°18'611.7
2017-Sep-20 02:29N 34°28' E 135°12'611.5
2017-Sep-20 02:00N 34°23' E 135°08'611.8
2017-Sep-20 01:30N 34°19' E 135°04'611.1
2017-Sep-20 01:00N 34°13' E 135°03'612.3
2017-Sep-20 00:30N 34°07' E 135°03'222 9.0
2017-Sep-18 23:49N 34°60' E 139°25'410.4
2017-Sep-18 23:28N 35°02' E 139°29'510.1
2017-Sep-18 23:00N 35°04' E 139°34'611.1
2017-Sep-18 22:30N 35°07' E 139°40'611.3
2017-Sep-18 22:00N 35°11' E 139°44'611.7
2017-Sep-18 21:30N 35°16' E 139°45'612.5
2017-Sep-18 21:00N 35°22' E 139°41'3 5.2
2017-Sep-18 20:30N 35°24' E 139°39'  
2017-Sep-16 15:45N 35°24' E 139°39'0 2.1
2017-Sep-16 15:30N 35°24' E 139°40'611.3
2017-Sep-16 15:00N 35°26' E 139°46'5 0.1
2017-Sep-14 13:57N 35°22' E 139°49'2 4.9
2017-Sep-14 13:30N 35°24' E 139°50'612.3
2017-Sep-14 13:00N 35°30' E 139°51'1112.5
2017-Sep-14 12:08N 35°39' E 139°59'2 0.1
2017-Sep-13 15:41N 35°37' E 139°58'7 9.8
2017-Sep-13 15:00N 35°32' E 139°54'611.6
2017-Sep-13 14:30N 35°27' E 139°50'611.4
2017-Sep-13 14:00N 35°23' E 139°46'510.8
2017-Sep-13 13:30N 35°17' E 139°45'611.1
2017-Sep-13 13:00N 35°12' E 139°47'612.1
2017-Sep-13 12:30N 35°07' E 139°43'612.2
2017-Sep-13 12:00N 35°02' E 139°38'613.0
2017-Sep-13 11:31N 34°58' E 139°31'  

Dump ship's entire track history